Time;durP1;ratioP1;P1;durP2;ratioP2;P2;SDS_P1;SDS_P2;PMS_P1;PMS_P2;Temp;Humidity;BMP_temperature;BMP_pressure;BME280_temperature;BME280_humidity;BME280_pressure;Samples;Min_cycle;Max_cycle;Signal;HPM_P1;HPM_P2
2023/09/17 00:02:13;;;;;;;17.63;8.70;;;;;;;17.59;63.66;101306.30;128236;1085;101600;-78
2023/09/17 00:04:41;;;;;;;18.33;8.87;;;;;;;17.60;63.82;101303.69;127429;1086;102069;-78
2023/09/17 00:07:10;;;;;;;18.20;8.87;;;;;;;17.64;63.82;101307.31;127154;1086;104020;-78
2023/09/17 00:09:39;;;;;;;18.30;8.97;;;;;;;17.64;63.62;101302.01;127125;1085;102079;-78
2023/09/17 00:12:08;;;;;;;18.17;8.87;;;;;;;17.57;63.59;101305.39;127244;1086;104201;-77
2023/09/17 00:14:37;;;;;;;17.93;8.33;;;;;;;17.42;64.29;101298.92;127254;1086;102034;-77
2023/09/17 00:17:06;;;;;;;17.80;8.85;;;;;;;17.29;64.34;101304.83;127337;1086;104114;-79
2023/09/17 00:19:34;;;;;;;17.27;8.70;;;;;;;17.21;64.43;101309.08;127512;1086;102156;-79
2023/09/17 00:22:04;;;;;;;20.13;9.07;;;;;;;17.12;64.48;101303.58;127550;1086;104028;-78
2023/09/17 00:24:33;;;;;;;21.67;8.63;;;;;;;17.03;64.44;101307.83;127419;1086;104222;-78
2023/09/17 00:27:02;;;;;;;23.47;8.90;;;;;;;16.97;64.96;101305.04;127298;1086;101736;-79
2023/09/17 00:29:31;;;;;;;22.30;9.00;;;;;;;16.94;65.05;101307.63;127549;1086;101820;-79
2023/09/17 00:31:59;;;;;;;19.97;9.13;;;;;;;16.99;65.27;101307.73;127438;1086;101944;-79
2023/09/17 00:34:28;;;;;;;20.93;8.90;;;;;;;17.00;64.86;101307.76;127406;1085;104271;-77
2023/09/17 00:36:56;;;;;;;22.80;9.13;;;;;;;16.95;65.25;101309.39;127535;1085;105394;-78
2023/09/17 00:39:28;;;;;;;20.80;9.13;;;;;;;16.91;65.65;101310.20;127503;1086;104226;-80
2023/09/17 00:41:57;;;;;;;18.63;8.83;;;;;;;16.86;65.88;101312.75;128499;1085;101987;-79
2023/09/17 00:44:26;;;;;;;18.97;9.23;;;;;;;16.77;65.32;101308.97;127862;1086;101899;-78
2023/09/17 00:46:56;;;;;;;18.50;8.93;;;;;;;16.69;65.67;101314.09;128431;1085;101776;-78
2023/09/17 00:49:24;;;;;;;19.37;8.93;;;;;;;16.59;66.10;101314.71;127856;1086;101743;-79
2023/09/17 00:51:53;;;;;;;19.17;9.20;;;;;;;16.47;66.29;101316.22;127842;1086;102044;-79
2023/09/17 00:54:25;;;;;;;20.85;9.00;;;;;;;16.40;66.58;101310.73;127886;1085;101807;-79
2023/09/17 00:56:54;;;;;;;17.57;8.60;;;;;;;16.33;67.24;101312.30;128359;1086;101688;-78
2023/09/17 00:59:24;;;;;;;19.03;8.67;;;;;;;16.29;66.44;101313.98;128526;1085;101784;-78
2023/09/17 01:01:54;;;;;;;19.40;9.20;;;;;;;16.29;66.46;101318.41;127793;1085;102009;-79
2023/09/17 01:04:24;;;;;;;21.67;10.77;;;;;;;16.26;67.09;101315.67;127701;1086;102038;-77
2023/09/17 01:06:55;;;;;;;20.23;9.53;;;;;;;16.26;67.20;101315.67;127999;1086;101878;-78
2023/09/17 01:09:25;;;;;;;19.57;9.80;;;;;;;16.22;67.52;101312.06;128245;1086;101743;-78
2023/09/17 01:11:54;;;;;;;21.87;9.77;;;;;;;16.20;67.21;101319.05;128454;1086;104242;-78
2023/09/17 01:14:23;;;;;;;16.33;8.40;;;;;;;16.17;67.69;101318.97;127757;1086;102239;-83
2023/09/17 01:16:54;;;;;;;19.53;9.33;;;;;;;16.14;68.11;101324.19;127476;1086;104231;-79
2023/09/17 01:19:28;;;;;;;18.97;9.33;;;;;;;16.06;68.92;101318.69;128064;1085;101883;-79
2023/09/17 01:22:03;;;;;;;18.80;9.00;;;;;;;15.99;69.01;101322.94;128565;1085;101809;-78
2023/09/17 01:24:41;;;;;;;20.10;10.00;;;;;;;15.96;69.34;101319.32;127521;1086;102729;-78
2023/09/17 01:27:11;;;;;;;20.07;9.90;;;;;;;15.96;69.43;101324.62;127460;1086;104162;-78
2023/09/17 01:29:43;;;;;;;23.53;9.57;;;;;;;15.96;69.37;101325.50;127920;1086;104124;-78
2023/09/17 01:32:12;;;;;;;21.55;9.10;;;;;;;15.97;69.50;101321.09;127585;1086;104169;-79
2023/09/17 01:34:42;;;;;;;20.90;9.33;;;;;;;16.01;68.95;101325.63;127405;1086;101791;-78
2023/09/17 01:37:17;;;;;;;21.33;9.30;;;;;;;16.07;69.44;101323.14;127234;1086;101816;-76
2023/09/17 01:39:53;;;;;;;23.80;9.93;;;;;;;16.12;69.40;101321.50;128133;1085;101784;-78
2023/09/17 01:42:23;;;;;;;19.83;9.73;;;;;;;16.13;69.78;101312.71;128213;1085;102118;-79
2023/09/17 01:44:53;;;;;;;22.13;9.60;;;;;;;16.16;68.90;101312.79;127380;1086;104159;-78
2023/09/17 01:47:24;;;;;;;21.77;9.73;;;;;;;16.20;69.12;101319.05;127302;1085;102005;-79
2023/09/17 01:49:55;;;;;;;18.63;8.80;;;;;;;16.24;69.51;101317.40;127256;1086;104156;-78
2023/09/17 01:52:26;;;;;;;24.97;9.40;;;;;;;16.27;69.56;101314.83;127244;1086;104149;-79
2023/09/17 01:54:55;;;;;;;21.90;9.70;;;;;;;16.32;69.72;101318.48;127304;1086;101954;-79
2023/09/17 01:57:23;;;;;;;22.33;9.70;;;;;;;16.34;69.27;101312.34;127518;1086;102075;-78
2023/09/17 01:59:55;;;;;;;18.97;8.57;;;;;;;16.36;69.21;101312.38;127686;1086;104290;-79
2023/09/17 02:02:24;;;;;;;19.95;9.50;;;;;;;16.37;69.63;101316.83;127322;1086;104155;-77
2023/09/17 02:04:53;;;;;;;18.80;9.53;;;;;;;16.36;69.71;101315.03;127226;1086;101928;-78
2023/09/17 02:07:22;;;;;;;20.53;9.53;;;;;;;16.34;69.17;101317.64;127286;1086;101788;-78
2023/09/17 02:09:50;;;;;;;18.37;9.07;;;;;;;16.35;69.81;101310.61;127246;1086;104240;-80
2023/09/17 02:12:19;;;;;;;19.80;9.07;;;;;;;16.35;69.57;101319.44;127242;1086;101982;-79
2023/09/17 02:14:47;;;;;;;20.60;9.97;;;;;;;16.32;69.81;101319.36;127272;1086;101858;-78
2023/09/17 02:17:16;;;;;;;20.07;9.57;;;;;;;16.35;69.81;101318.55;127279;1085;104165;-78
2023/09/17 02:19:45;;;;;;;19.40;9.63;;;;;;;16.35;69.50;101311.50;128165;1085;101812;-79
2023/09/17 02:22:14;;;;;;;19.50;10.17;;;;;;;16.36;69.64;101315.03;127414;1086;101874;-79
2023/09/17 02:24:42;;;;;;;24.73;10.00;;;;;;;16.38;69.93;101307.13;127368;1086;104232;-79
2023/09/17 02:27:11;;;;;;;20.47;9.10;;;;;;;16.38;69.55;101315.06;127408;1086;101807;-79
2023/09/17 02:29:40;;;;;;;20.80;9.90;;;;;;;16.37;70.03;101315.95;128231;1085;104258;-78
2023/09/17 02:32:09;;;;;;;21.20;9.50;;;;;;;16.38;70.39;101315.06;127528;1086;104155;-78
2023/09/17 02:34:38;;;;;;;20.30;9.53;;;;;;;16.36;70.01;101304.44;127384;1086;102086;-79
2023/09/17 02:37:07;;;;;;;21.00;9.60;;;;;;;16.38;70.50;101310.69;127449;1086;104338;-78
2023/09/17 02:39:35;;;;;;;18.40;9.07;;;;;;;16.35;69.96;101307.96;127634;1086;103304;-79
2023/09/17 02:42:04;;;;;;;20.93;10.20;;;;;;;16.33;70.63;101309.66;128852;1086;101771;-78
2023/09/17 02:44:33;;;;;;;20.00;10.00;;;;;;;16.31;70.48;101311.37;127571;1086;101989;-78
2023/09/17 02:47:03;;;;;;;22.20;9.70;;;;;;;16.28;70.78;101311.30;127472;1086;103286;-78
2023/09/17 02:49:31;;;;;;;19.87;9.70;;;;;;;16.26;70.20;101313.02;127975;1086;101796;-79
2023/09/17 02:52:00;;;;;;;19.27;10.00;;;;;;;16.28;70.81;101321.89;127573;1086;104236;-78
2023/09/17 02:54:28;;;;;;;20.80;10.30;;;;;;;16.28;70.05;101316.59;127299;1086;102060;-78
2023/09/17 02:56:58;;;;;;;22.70;10.27;;;;;;;16.25;70.47;101316.52;127289;1086;104181;-78
2023/09/17 02:59:27;;;;;;;22.00;9.97;;;;;;;16.24;70.63;101314.75;127245;1086;102073;-79
2023/09/17 03:01:56;;;;;;;18.83;9.63;;;;;;;16.23;70.79;101312.95;127290;1086;104322;-79
2023/09/17 03:04:26;;;;;;;21.03;10.03;;;;;;;16.21;70.28;101319.97;127295;1086;101865;-78
2023/09/17 03:06:55;;;;;;;21.60;9.83;;;;;;;16.16;70.92;101326.03;127213;1086;101832;-77
2023/09/17 03:09:25;;;;;;;22.07;10.97;;;;;;;16.14;71.02;101325.10;127272;1086;104641;-79
2023/09/17 03:11:54;;;;;;;20.83;9.43;;;;;;;16.13;71.19;101330.36;127290;1086;101849;-78
2023/09/17 03:14:23;;;;;;;21.67;10.37;;;;;;;16.08;70.77;101330.23;127658;1086;103231;-79
2023/09/17 03:16:52;;;;;;;18.80;9.73;;;;;;;16.08;71.03;101324.02;127736;1086;101771;-79
2023/09/17 03:19:21;;;;;;;22.17;10.40;;;;;;;16.08;70.75;101330.23;127610;1086;104162;-79
2023/09/17 03:21:50;;;;;;;21.50;10.37;;;;;;;16.06;70.62;101326.63;127457;1086;104155;-79
2023/09/17 03:24:18;;;;;;;24.73;10.13;;;;;;;16.04;71.50;101335.41;127554;1086;101883;-79
2023/09/17 03:26:47;;;;;;;21.07;9.30;;;;;;;16.01;70.98;101328.27;127751;1086;104407;-78
2023/09/17 03:29:16;;;;;;;20.00;9.93;;;;;;;16.02;70.70;101331.80;127623;1086;104210;-78
2023/09/17 03:31:48;;;;;;;23.87;10.30;;;;;;;15.98;70.99;101330.84;127648;1086;104258;-79
2023/09/17 03:34:16;;;;;;;21.60;9.73;;;;;;;15.96;71.01;101328.15;127741;1084;102259;-79
2023/09/17 03:36:45;;;;;;;20.37;9.83;;;;;;;15.96;71.39;101324.62;128535;1085;101801;-79
2023/09/17 03:39:14;;;;;;;22.77;10.30;;;;;;;15.94;71.67;101323.66;128106;1086;102194;-79
2023/09/17 03:41:42;;;;;;;20.67;9.70;;;;;;;15.93;70.90;101332.47;127684;1086;101908;-79
2023/09/17 03:44:14;;;;;;;19.60;10.23;;;;;;;15.91;70.84;101328.86;127631;1086;101859;-79
2023/09/17 03:46:43;;;;;;;20.00;10.17;;;;;;;15.88;71.05;101324.41;128081;1086;102239;-79
2023/09/17 03:49:13;;;;;;;21.93;10.20;;;;;;;15.90;71.79;101338.56;127627;1086;102122;-78
2023/09/17 03:51:41;;;;;;;20.93;10.30;;;;;;;15.85;70.82;101337.55;127985;1085;104574;-79
2023/09/17 03:54:10;;;;;;;21.20;10.30;;;;;;;15.81;70.87;101340.96;127690;1086;101896;-79
2023/09/17 03:56:39;;;;;;;20.90;10.17;;;;;;;15.79;71.11;101340.91;127799;1085;102098;-79
2023/09/17 03:59:07;;;;;;;20.43;9.67;;;;;;;15.81;71.13;101338.31;127797;1086;102179;-80
2023/09/17 04:01:37;;;;;;;23.27;10.20;;;;;;;15.79;71.82;101338.27;128406;1085;101908;-78
2023/09/17 04:04:07;;;;;;;21.87;10.17;;;;;;;15.79;70.94;101343.56;127567;1086;102259;-79
2023/09/17 04:06:38;;;;;;;22.33;10.73;;;;;;;15.81;71.44;101347.14;128174;1085;104121;-77
2023/09/17 04:09:11;;;;;;;22.20;10.48;;;;;;;15.79;71.96;101338.27;128405;1085;101743;-77
2023/09/17 04:11:39;;;;;;;20.00;9.53;;;;;;;15.80;72.02;101347.12;127632;1086;104219;-78
2023/09/17 04:14:08;;;;;;;21.83;11.23;;;;;;;15.79;72.00;101340.91;127333;1086;101877;-80
2023/09/17 04:16:37;;;;;;;20.20;10.40;;;;;;;15.80;71.44;101345.37;127107;1085;102240;-80
2023/09/17 04:19:06;;;;;;;24.17;11.13;;;;;;;15.83;72.08;101338.36;127554;1086;102099;-79
2023/09/17 04:21:34;;;;;;;22.17;10.80;;;;;;;15.85;71.80;101344.58;128187;1085;111989;-80
2023/09/17 04:24:03;;;;;;;20.93;10.80;;;;;;;15.88;72.32;101339.37;127957;1086;101810;-81
2023/09/17 04:26:32;;;;;;;20.23;10.43;;;;;;;15.92;71.54;101343.91;127401;1085;104204;-81
2023/09/17 04:29:00;;;;;;;19.33;10.27;;;;;;;15.93;71.74;101348.35;127863;1086;102056;-80
2023/09/17 04:31:29;;;;;;;19.60;10.37;;;;;;;15.94;72.37;101351.05;127805;1086;104219;-81
2023/09/17 04:33:58;;;;;;;20.47;10.90;;;;;;;15.97;71.50;101356.42;127283;1086;101883;-78
2023/09/17 04:36:26;;;;;;;23.80;10.83;;;;;;;15.98;72.15;101352.01;128430;1085;101787;-78
2023/09/17 04:38:55;;;;;;;21.23;11.10;;;;;;;15.99;71.99;101357.34;128641;1084;101808;-78
2023/09/17 04:41:24;;;;;;;21.60;11.17;;;;;;;15.98;71.95;101362.59;127240;1086;104204;-80
2023/09/17 04:43:52;;;;;;;23.47;10.77;;;;;;;15.97;72.32;101360.80;127307;1086;102426;-80
2023/09/17 04:46:22;;;;;;;24.73;10.97;;;;;;;15.97;72.49;101359.06;127384;1086;102062;-79
2023/09/17 04:48:53;;;;;;;23.80;11.87;;;;;;;15.92;71.69;101367.72;127666;1086;101835;-79
2023/09/17 04:51:22;;;;;;;24.13;11.20;;;;;;;15.87;71.93;101359.66;127072;1086;102273;-80
2023/09/17 04:53:51;;;;;;;22.87;11.97;;;;;;;15.88;71.90;101357.89;127627;1086;102001;-79
2023/09/17 04:56:20;;;;;;;22.27;11.03;;;;;;;15.87;72.02;101361.41;127034;1086;101986;-80
2023/09/17 04:58:49;;;;;;;24.63;11.27;;;;;;;15.86;72.31;101365.79;127205;1086;102028;-79
2023/09/17 05:01:20;;;;;;;21.63;11.27;;;;;;;15.87;71.87;101364.95;127309;1086;101826;-79
2023/09/17 05:03:48;;;;;;;20.77;11.23;;;;;;;15.88;72.05;101360.54;128161;1085;101883;-79
2023/09/17 05:06:18;;;;;;;21.87;11.60;;;;;;;15.89;72.79;101367.64;127059;1086;104047;-79
2023/09/17 05:08:46;;;;;;;27.67;11.57;;;;;;;15.89;72.86;101367.64;127227;1085;104047;-78
2023/09/17 05:11:15;;;;;;;22.80;11.30;;;;;;;15.91;72.23;101373.86;127091;1086;104162;-79
2023/09/17 05:13:44;;;;;;;20.90;11.20;;;;;;;15.94;72.12;101368.65;127066;1086;101925;-78
2023/09/17 05:16:14;;;;;;;24.03;11.43;;;;;;;16.01;72.37;101375.03;126981;1086;104274;-79
2023/09/17 05:18:44;;;;;;;22.10;11.43;;;;;;;16.04;72.66;101376.00;126967;1086;102061;-79
2023/09/17 05:21:12;;;;;;;22.47;11.47;;;;;;;16.08;72.96;101369.03;128397;1085;101716;-77
2023/09/17 05:23:41;;;;;;;25.17;11.47;;;;;;;16.13;72.71;101378.90;128155;1086;102005;-79
2023/09/17 05:26:09;;;;;;;24.05;11.60;;;;;;;16.15;72.66;101374.53;127289;1086;102135;-79
2023/09/17 05:28:38;;;;;;;21.87;11.67;;;;;;;16.22;72.88;101374.70;127130;1086;101795;-78
2023/09/17 05:31:07;;;;;;;23.57;11.83;;;;;;;16.27;72.51;101373.09;127144;1086;101909;-78
2023/09/17 05:33:36;;;;;;;21.63;11.43;;;;;;;16.34;72.80;101375.02;127050;1086;104243;-78
2023/09/17 05:36:07;;;;;;;23.33;12.20;;;;;;;16.40;72.81;101374.30;127106;1086;104232;-80
2023/09/17 05:38:36;;;;;;;24.73;12.23;;;;;;;16.43;72.22;101367.31;127232;1086;101901;-78
2023/09/17 05:41:05;;;;;;;25.83;12.40;;;;;;;16.50;72.21;101366.63;127338;1086;102385;-78
2023/09/17 05:43:34;;;;;;;23.87;12.20;;;;;;;16.60;72.73;101366.86;127347;1086;101912;-79
2023/09/17 05:46:04;;;;;;;23.67;11.23;;;;;;;16.70;72.80;101367.12;127346;1086;101973;-78
2023/09/17 05:48:39;;;;;;;25.00;11.70;;;;;;;16.78;72.32;101376.99;127449;1086;104165;-78
2023/09/17 05:51:08;;;;;;;26.53;13.03;;;;;;;16.83;71.89;101375.38;127322;1086;104181;-77
2023/09/17 05:53:36;;;;;;;25.63;12.73;;;;;;;16.89;72.18;101376.44;127066;1086;117784;-78
2023/09/17 05:56:07;;;;;;;25.70;12.07;;;;;;;16.95;72.25;101370.36;127174;1086;104162;-77
2023/09/17 05:58:36;;;;;;;23.33;12.50;;;;;;;17.03;72.04;101368.81;127167;1086;101823;-78
2023/09/17 06:01:05;;;;;;;23.47;13.00;;;;;;;17.10;72.19;101368.95;126987;1086;101871;-77
2023/09/17 06:03:34;;;;;;;25.67;12.90;;;;;;;17.18;71.76;101373.55;126971;1087;104145;-79
2023/09/17 06:06:04;;;;;;;23.00;12.70;;;;;;;17.31;71.67;101373.83;127087;1086;104334;-78
2023/09/17 06:08:33;;;;;;;21.97;12.50;;;;;;;17.41;71.62;101370.52;126951;1086;101997;-78
2023/09/17 06:11:02;;;;;;;22.97;12.40;;;;;;;17.53;71.26;101376.09;126821;1086;102163;-78
2023/09/17 06:13:31;;;;;;;21.27;12.13;;;;;;;17.60;70.75;101375.34;126914;1086;104210;-76
2023/09/17 06:16:01;;;;;;;27.70;12.23;;;;;;;17.70;70.68;101371.14;127088;1086;101814;-79
2023/09/17 06:18:32;;;;;;;25.77;11.57;;;;;;;17.82;70.72;101377.55;127088;1086;101889;-78
2023/09/17 06:21:01;;;;;;;22.27;10.97;;;;;;;17.91;70.44;101380.42;127963;1086;104178;-82
2023/09/17 06:23:29;;;;;;;21.80;11.33;;;;;;;17.99;70.29;101381.45;127016;1086;102066;-81
2023/09/17 06:25:58;;;;;;;22.27;11.80;;;;;;;18.08;70.06;101391.37;127479;1086;102054;-80
2023/09/17 06:28:27;;;;;;;21.07;10.93;;;;;;;18.16;70.04;101389.75;127120;1086;101891;-81
2023/09/17 06:30:55;;;;;;;20.90;10.53;;;;;;;18.25;69.78;101387.27;126959;1086;104156;-80
2023/09/17 06:33:24;;;;;;;19.67;9.80;;;;;;;18.35;69.62;101392.73;126854;1086;101909;-82
2023/09/17 06:35:53;;;;;;;19.47;9.90;;;;;;;18.44;69.44;101384.94;127160;1086;104313;-85
2023/09/17 06:38:22;;;;;;;20.27;10.00;;;;;;;18.54;68.98;101394.84;127182;1085;104292;-81
2023/09/17 06:40:52;;;;;;;20.13;9.07;;;;;;;18.64;69.17;101399.45;127098;1086;101903;-83
2023/09/17 06:43:21;;;;;;;21.87;9.33;;;;;;;18.73;68.92;101395.15;128786;1086;101834;-80
2023/09/17 06:45:51;;;;;;;21.93;8.43;;;;;;;18.82;68.23;101392.64;127208;1086;104351;-83
2023/09/17 06:48:20;;;;;;;19.93;9.47;;;;;;;18.91;68.05;101386.63;128486;1085;101993;-80
2023/09/17 06:50:48;;;;;;;16.37;8.47;;;;;;;19.01;68.13;101397.42;128047;1085;104196;-82
2023/09/17 06:53:17;;;;;;;16.47;8.00;;;;;;;19.12;67.89;101392.27;128381;1085;101705;-84
2023/09/17 06:55:46;;;;;;;16.63;8.63;;;;;;;19.24;67.66;101403.95;126907;1086;104302;-80
2023/09/17 06:58:16;;;;;;;16.20;8.13;;;;;;;19.36;67.25;101401.47;127158;1086;102000;-84
2023/09/17 07:00:46;;;;;;;15.87;8.17;;;;;;;19.45;66.59;101395.39;128101;1085;102162;-79
2023/09/17 07:03:14;;;;;;;18.73;8.17;;;;;;;19.54;67.00;101401.72;127580;1086;104172;-81
2023/09/17 07:05:43;;;;;;;20.60;8.90;;;;;;;19.66;66.93;101400.97;127266;1086;104158;-83
2023/09/17 07:08:12;;;;;;;16.67;8.67;;;;;;;19.78;67.07;101397.61;127110;1086;104376;-83
2023/09/17 07:10:43;;;;;;;14.97;7.90;;;;;;;19.92;66.91;101403.09;127511;1086;101737;-83
2023/09/17 07:13:12;;;;;;;19.80;8.97;;;;;;;20.09;66.02;101405.95;127365;1086;105437;-79
2023/09/17 07:15:41;;;;;;;16.70;7.87;;;;;;;20.25;65.92;101402.55;127897;1086;102432;-79
2023/09/17 07:18:10;;;;;;;17.83;7.93;;;;;;;20.43;66.08;101404.52;127812;1085;104248;-81
2023/09/17 07:20:41;;;;;;;16.03;7.80;;;;;;;20.61;64.64;101403.77;127918;1085;104175;-80
2023/09/17 07:23:10;;;;;;;14.77;7.80;;;;;;;20.76;64.75;101404.84;127593;1086;104475;-81
2023/09/17 07:25:39;;;;;;;15.50;8.27;;;;;;;20.90;64.42;101397.83;127067;1085;104258;-80
2023/09/17 07:28:08;;;;;;;15.93;7.73;;;;;;;21.05;64.25;101402.40;127919;1086;102009;-78
2023/09/17 07:30:37;;;;;;;14.63;7.90;;;;;;;21.14;64.04;101397.09;126920;1086;104340;-80
2023/09/17 07:33:06;;;;;;;13.50;7.20;;;;;;;21.23;63.80;101400.72;126995;1086;101946;-81
2023/09/17 07:35:39;;;;;;;18.63;7.87;;;;;;;21.32;63.23;101400.78;128923;1085;101779;-80
2023/09/17 07:38:08;;;;;;;15.83;7.37;;;;;;;21.45;63.09;101394.60;127662;1086;101868;-80
2023/09/17 07:40:37;;;;;;;14.53;7.27;;;;;;;21.59;62.88;101400.05;127054;1086;101861;-79
2023/09/17 07:43:07;;;;;;;15.07;7.80;;;;;;;21.71;62.54;101393.88;128939;1085;101759;-81
2023/09/17 07:45:36;;;;;;;16.70;7.73;;;;;;;21.78;61.60;101398.34;127941;1085;101800;-80
2023/09/17 07:48:06;;;;;;;15.30;7.67;;;;;;;21.80;61.47;101390.33;126924;1086;102011;-81
2023/09/17 07:50:35;;;;;;;15.23;7.43;;;;;;;21.86;60.89;101385.92;126942;1086;104054;-81
2023/09/17 07:53:05;;;;;;;13.70;7.03;;;;;;;21.99;61.29;101380.61;126863;1086;102179;-80
2023/09/17 07:55:34;;;;;;;15.40;7.90;;;;;;;22.11;60.99;101379.73;127861;1085;101676;-81
2023/09/17 07:58:03;;;;;;;12.90;7.37;;;;;;;22.20;60.45;101377.95;126968;1086;102048;-79
2023/09/17 08:00:32;;;;;;;17.87;7.93;;;;;;;22.25;59.15;101381.55;126843;1086;104235;-80
2023/09/17 08:03:01;;;;;;;14.23;7.50;;;;;;;22.33;59.10;101386.03;126835;1086;102105;-83
2023/09/17 08:05:30;;;;;;;11.67;6.77;;;;;;;22.39;58.33;101381.61;126970;1086;104079;-79
2023/09/17 08:07:58;;;;;;;14.20;6.37;;;;;;;22.43;58.10;101374.47;126832;1085;101878;-79
2023/09/17 08:10:27;;;;;;;12.67;6.90;;;;;;;22.52;57.94;101371.80;126911;1086;104156;-78
2023/09/17 08:12:56;;;;;;;17.97;7.53;;;;;;;22.63;57.65;101373.59;127014;1085;101960;-77
2023/09/17 08:15:27;;;;;;;9.67;6.10;;;;;;;22.62;56.40;101370.00;126854;1086;102138;-78
2023/09/17 08:17:56;;;;;;;11.73;6.70;;;;;;;22.69;56.37;101360.18;126882;1086;104268;-81
2023/09/17 08:20:25;;;;;;;15.90;7.70;;;;;;;22.80;55.46;101364.64;127929;1085;101940;-79
2023/09/17 08:22:54;;;;;;;13.63;6.70;;;;;;;22.89;54.88;101363.75;126818;1086;102009;-77
2023/09/17 08:25:22;;;;;;;12.73;7.10;;;;;;;22.88;54.76;101361.96;126849;1086;104299;-78
2023/09/17 08:27:53;;;;;;;11.00;6.77;;;;;;;22.96;54.57;101357.48;126755;1086;104714;-79
2023/09/17 08:30:21;;;;;;;9.77;5.93;;;;;;;23.11;54.08;101359.27;127891;1085;101833;-80
2023/09/17 08:32:50;;;;;;;9.60;5.73;;;;;;;23.26;53.75;101355.64;126824;1086;102035;-77
2023/09/17 08:35:19;;;;;;;13.57;7.10;;;;;;;23.30;53.28;101353.87;127837;1085;101887;-79
2023/09/17 08:37:49;;;;;;;11.90;6.57;;;;;;;23.36;53.44;101355.61;126825;1086;102181;-78
2023/09/17 08:40:19;;;;;;;8.90;5.53;;;;;;;23.42;52.34;101351.15;126908;1086;104198;-78
2023/09/17 08:42:48;;;;;;;11.47;6.10;;;;;;;23.56;52.20;101351.09;127992;1085;101802;-79
2023/09/17 08:45:19;;;;;;;12.50;6.53;;;;;;;23.69;51.59;101349.23;127092;1086;102561;-80
2023/09/17 08:47:48;;;;;;;13.50;6.30;;;;;;;23.84;51.35;101349.19;127519;1086;104194;-78
2023/09/17 08:50:17;;;;;;;12.45;5.85;;;;;;;23.96;50.98;101350.00;126742;1086;102045;-78
2023/09/17 08:52:52;;;;;;;12.27;5.87;;;;;;;24.00;50.77;101351.78;127002;1086;104231;-78
2023/09/17 08:55:22;;;;;;;11.33;6.10;;;;;;;24.07;50.38;101349.94;127840;1085;104056;-80
2023/09/17 08:57:57;;;;;;;9.60;5.73;;;;;;;24.05;49.49;101356.19;126884;1086;101905;-77
2023/09/17 09:00:27;;;;;;;9.87;5.67;;;;;;;24.03;49.63;101354.44;127505;1086;101993;-78
2023/09/17 09:03:00;;;;;;;11.00;5.87;;;;;;;24.07;49.14;101350.81;126725;1086;104171;-79
2023/09/17 09:05:29;;;;;;;11.63;6.30;;;;;;;24.14;48.64;101346.33;127592;1086;102422;-80
2023/09/17 09:07:59;;;;;;;13.10;6.47;;;;;;;24.24;48.23;101348.02;127994;1085;101834;-83
2023/09/17 09:10:27;;;;;;;10.90;6.00;;;;;;;24.29;47.73;101348.86;126859;1086;104177;-78
2023/09/17 09:12:59;;;;;;;10.43;6.30;;;;;;;24.36;47.89;101344.37;126809;1086;104200;-78
2023/09/17 09:15:28;;;;;;;11.27;5.93;;;;;;;24.45;47.31;101338.02;126766;1086;102055;-77
2023/09/17 09:17:57;;;;;;;12.33;5.70;;;;;;;24.61;46.94;101344.20;126723;1086;102131;-77
2023/09/17 09:20:26;;;;;;;10.90;5.43;;;;;;;24.70;45.95;101344.99;126883;1086;104231;-80
2023/09/17 09:22:55;;;;;;;12.23;6.03;;;;;;;24.73;45.90;101338.72;126888;1086;104258;-80
2023/09/17 09:25:28;;;;;;;15.10;6.23;;;;;;;24.71;46.13;101332.45;126911;1086;101834;-78
2023/09/17 09:28:00;;;;;;;11.17;5.97;;;;;;;24.75;45.85;101332.41;126908;1085;107088;-77
2023/09/17 09:30:29;;;;;;;10.13;5.87;;;;;;;24.74;46.26;101332.42;126619;1086;104234;-77
2023/09/17 09:32:58;;;;;;;9.37;5.67;;;;;;;24.66;45.23;101327.12;126333;1085;104360;-76
2023/09/17 09:35:28;;;;;;;11.23;6.13;;;;;;;24.63;45.02;101332.52;126563;1086;104181;-77
2023/09/17 09:37:57;;;;;;;10.83;5.93;;;;;;;24.70;44.81;101318.16;126741;1086;101983;-78
2023/09/17 09:40:26;;;;;;;10.63;5.70;;;;;;;24.87;44.72;101319.76;126748;1086;101999;-78
2023/09/17 09:42:55;;;;;;;15.73;6.90;;;;;;;24.96;44.36;101322.34;126799;1086;102289;-78
2023/09/17 09:45:23;;;;;;;8.57;5.40;;;;;;;24.98;44.41;101317.88;127746;1086;102005;-79
2023/09/17 09:47:53;;;;;;;9.73;5.40;;;;;;;25.10;43.79;101317.73;126869;1086;104197;-80
2023/09/17 09:50:23;;;;;;;10.00;5.40;;;;;;;25.23;43.45;101320.28;127844;1085;104315;-78
2023/09/17 09:52:53;;;;;;;9.07;5.17;;;;;;;25.22;43.58;101319.36;126690;1086;102088;-79
2023/09/17 09:55:24;;;;;;;7.87;4.87;;;;;;;25.21;42.54;101324.75;127095;1085;102283;-81
2023/09/17 09:57:53;;;;;;;10.63;5.30;;;;;;;25.18;42.46;101314.96;127877;1085;101967;-78
2023/09/17 10:00:26;;;;;;;9.40;5.40;;;;;;;25.21;41.93;101322.98;126813;1086;104178;-77
2023/09/17 10:02:56;;;;;;;9.28;5.58;;;;;;;25.26;42.41;101312.19;126662;1086;102299;-79
2023/09/17 10:05:34;;;;;;;7.67;5.10;;;;;;;25.24;41.66;101319.34;126733;1086;104225;-79
2023/09/17 10:08:04;;;;;;;8.53;4.90;;;;;;;25.20;41.65;101306.89;126871;1086;104226;-78
2023/09/17 10:10:33;;;;;;;11.90;5.90;;;;;;;25.23;41.77;101317.59;126588;1085;104168;-78
2023/09/17 10:13:04;;;;;;;10.50;5.20;;;;;;;25.15;41.72;101304.25;126560;1086;104222;-77
2023/09/17 10:15:34;;;;;;;9.10;4.83;;;;;;;25.04;41.38;101304.37;126502;1086;102272;-78
2023/09/17 10:18:05;;;;;;;9.40;5.07;;;;;;;25.04;40.85;101307.06;126827;1086;104213;-79
2023/09/17 10:20:35;;;;;;;6.93;4.70;;;;;;;25.11;40.74;101302.50;127735;1085;102599;-78
2023/09/17 10:23:05;;;;;;;9.20;4.80;;;;;;;25.11;40.47;101297.13;126999;1086;102021;-80
2023/09/17 10:25:35;;;;;;;8.27;5.47;;;;;;;25.20;40.76;101301.52;128044;1086;102366;-78
2023/09/17 10:28:07;;;;;;;10.77;5.23;;;;;;;25.28;40.70;101294.23;127825;1085;102267;-79
2023/09/17 10:30:38;;;;;;;8.43;4.50;;;;;;;25.39;40.67;101292.33;126985;1086;104097;-79
2023/09/17 10:33:09;;;;;;;7.40;4.50;;;;;;;25.51;40.22;101293.06;127822;1086;104105;-77
2023/09/17 10:35:38;;;;;;;8.63;4.80;;;;;;;25.46;39.77;101288.66;126614;1086;102007;-78
2023/09/17 10:38:09;;;;;;;7.43;4.57;;;;;;;25.41;40.11;101289.62;127282;1086;102765;-78
2023/09/17 10:40:39;;;;;;;9.47;5.03;;;;;;;25.42;39.59;101286.91;126721;1086;101820;-81
2023/09/17 10:43:11;;;;;;;8.00;4.50;;;;;;;25.47;39.19;101289.55;127728;1086;104152;-78
2023/09/17 10:45:42;;;;;;;5.53;4.10;;;;;;;25.46;39.06;101291.34;127473;1086;104197;-78
2023/09/17 10:48:11;;;;;;;6.63;4.00;;;;;;;25.46;39.12;101277.91;128546;1085;101886;-79
2023/09/17 10:50:43;;;;;;;6.90;4.40;;;;;;;25.56;38.62;101267.92;128694;1085;101774;-78
2023/09/17 10:53:12;;;;;;;7.20;4.23;;;;;;;25.57;38.78;101279.55;128887;1085;101850;-78
2023/09/17 10:55:47;;;;;;;7.87;4.17;;;;;;;25.59;38.18;101272.38;126677;1086;103342;-77
2023/09/17 10:58:21;;;;;;;6.97;3.90;;;;;;;25.66;38.31;101282.09;126725;1086;101810;-78
2023/09/17 11:00:51;;;;;;;6.60;4.37;;;;;;;25.71;37.89;101276.66;127848;1085;101788;-78
2023/09/17 11:03:23;;;;;;;7.87;4.23;;;;;;;25.69;37.58;101274.00;126801;1086;104328;-78
2023/09/17 11:05:55;;;;;;;6.63;4.27;;;;;;;25.69;37.59;101268.62;127650;1085;104162;-77
2023/09/17 11:08:25;;;;;;;9.70;5.57;;;;;;;25.71;37.54;101257.84;126912;1086;102080;-78
2023/09/17 11:10:54;;;;;;;8.70;5.13;;;;;;;25.74;37.99;101258.71;127986;1086;104225;-77